createdAt,value
2018-03-22T21:07:05.205Z,6.27
2018-03-22T21:09:29.452Z,6.32
2018-03-22T21:11:52.178Z,6.30
2018-03-22T21:14:15.729Z,6.19
2018-03-22T21:15:24.281Z,6.24
2018-03-22T21:17:09.711Z,6.19
2018-03-22T21:18:09.543Z,6.18
2018-03-22T21:20:32.941Z,6.25
2018-03-22T21:21:32.917Z,6.18
2018-03-22T21:22:33.748Z,6.24
2018-03-22T21:24:56.342Z,6.27
2018-03-22T21:25:56.032Z,6.13
2018-03-22T21:28:19.544Z,6.09
2018-03-22T21:29:18.662Z,6.13
2018-03-22T21:30:18.796Z,6.08
2018-03-22T21:31:18.845Z,6.16
2018-03-22T21:32:18.418Z,6.12
2018-03-22T21:33:18.261Z,6.13
2018-03-22T21:34:18.226Z,6.21
2018-03-22T21:35:18.209Z,6.11
2018-03-22T21:36:18.204Z,6.15
2018-03-22T21:37:28.085Z,6.15
2018-03-22T21:39:13.172Z,6.12
2018-03-22T21:40:13.134Z,6.12
2018-03-22T21:41:13.121Z,6.09
2018-03-22T21:42:13.103Z,6.11
2018-03-22T21:44:35.140Z,6.15
2018-03-22T21:46:57.198Z,6.15
2018-03-22T21:48:01.795Z,6.11
2018-03-22T21:50:20.133Z,6.03
2018-03-22T21:52:42.087Z,6.05
2018-03-22T21:55:16.280Z,6.11
2018-03-22T21:56:11.305Z,6.08
2018-03-22T21:57:08.019Z,6.09
2018-03-22T21:58:07.977Z,6.06
2018-03-22T21:59:10.554Z,6.12
2018-03-22T22:01:33.110Z,6.11
2018-03-22T22:03:56.023Z,6.06
2018-03-22T22:04:55.015Z,6.02
2018-03-22T22:05:56.977Z,6.06
2018-03-22T22:08:22.536Z,6.06
2018-03-22T22:09:30.423Z,6.03
2018-03-22T22:12:35.309Z,5.97
2018-03-22T22:15:26.589Z,6.12
2018-03-22T22:16:22.757Z,6.02
2018-03-22T22:19:01.487Z,6.00
2018-03-22T22:19:56.793Z,5.94
2018-03-22T22:21:06.302Z,5.97
2018-03-22T22:22:51.385Z,5.97
2018-03-22T22:23:55.227Z,5.94
2018-03-22T22:24:51.597Z,6.00
2018-03-22T22:27:19.968Z,5.95
2018-03-22T22:28:23.973Z,5.98
2018-03-22T22:30:45.343Z,5.98
2018-03-22T22:31:44.513Z,6.02
2018-03-22T22:34:06.305Z,5.97
2018-03-22T22:35:20.417Z,6.00
2018-03-22T22:36:17.555Z,5.94
2018-03-22T22:37:06.816Z,6.00
2018-03-22T22:39:27.866Z,5.98
2018-03-22T22:41:49.194Z,6.00
2018-03-22T22:44:12.194Z,5.95
2018-03-22T22:46:36.289Z,5.98
2018-03-22T22:47:36.080Z,5.97
2018-03-22T22:48:35.927Z,5.94
2018-03-22T22:50:58.992Z,5.88
2018-03-22T22:53:23.069Z,5.98
2018-03-22T22:54:22.331Z,5.87
2018-03-22T22:56:45.283Z,5.91
2018-03-22T22:57:45.022Z,5.82
2018-03-22T23:00:08.403Z,5.87
2018-03-22T23:01:08.258Z,5.82
2018-03-22T23:02:08.425Z,5.87
2018-03-22T23:03:08.144Z,5.82
2018-03-22T23:04:08.117Z,5.84
2018-03-22T23:05:07.756Z,5.87
2018-03-22T23:06:07.518Z,5.82
2018-03-22T23:07:07.560Z,5.75
2018-03-22T23:08:07.558Z,5.84
2018-03-22T23:09:07.499Z,5.77
2018-03-22T23:10:07.453Z,5.76
2018-03-22T23:12:31.199Z,5.73
2018-03-22T23:13:30.908Z,5.79
2018-03-22T23:14:30.892Z,5.73
2018-03-22T23:15:30.964Z,5.70
2018-03-22T23:16:30.699Z,5.80
2018-03-22T23:17:30.476Z,5.76
2018-03-22T23:19:55.220Z,5.69
2018-03-22T23:20:55.026Z,5.75
2018-03-22T23:21:55.084Z,5.72
2018-03-22T23:22:54.748Z,5.75
2018-03-22T23:23:54.746Z,5.77
2018-03-22T23:24:54.944Z,5.69
2018-03-22T23:25:54.940Z,5.72
2018-03-22T23:26:54.835Z,5.80
2018-03-22T23:27:54.315Z,5.73
2018-03-22T23:30:17.936Z,5.76
2018-03-22T23:31:17.882Z,5.70
2018-03-22T23:32:18.026Z,5.70
2018-03-22T23:33:17.978Z,5.70
2018-03-22T23:34:17.213Z,5.75
2018-03-22T23:35:17.198Z,5.70
2018-03-22T23:36:17.211Z,5.70
2018-03-22T23:38:40.780Z,5.66
2018-03-22T23:39:40.865Z,5.70
2018-03-22T23:40:40.867Z,5.66
2018-03-22T23:41:40.632Z,5.66
2018-03-22T23:42:40.755Z,5.65
2018-03-22T23:43:40.621Z,5.55
2018-03-22T23:44:40.675Z,5.67
2018-03-22T23:45:41.149Z,5.66
2018-03-22T23:48:03.796Z,5.62
2018-03-22T23:49:03.636Z,5.72
2018-03-22T23:50:03.590Z,5.70
2018-03-22T23:51:03.602Z,5.69
2018-03-22T23:52:03.599Z,5.61
2018-03-22T23:53:03.467Z,5.62
2018-03-22T23:54:04.118Z,5.59
2018-03-22T23:55:02.951Z,5.62
2018-03-22T23:56:02.892Z,5.61
2018-03-22T23:57:02.882Z,5.61
2018-03-22T23:58:02.865Z,5.57
2018-03-22T23:59:02.870Z,5.65
